createdAt,value
2019-05-26T00:00:04.665Z,10.10
2019-05-26T00:02:34.249Z,10.10
2019-05-26T00:05:04.384Z,10.10
2019-05-26T00:07:33.482Z,10.10
2019-05-26T00:10:02.755Z,10.10
2019-05-26T00:12:32.085Z,10.10
2019-05-26T00:15:01.265Z,10.00
2019-05-26T00:17:30.651Z,10.00
2019-05-26T00:20:01.867Z,10.00
2019-05-26T00:22:30.798Z,10.00
2019-05-26T00:24:59.788Z,9.90
2019-05-26T00:27:28.757Z,9.90
2019-05-26T00:29:57.663Z,9.90
2019-05-26T00:32:26.594Z,9.90
2019-05-26T00:34:55.587Z,9.80
2019-05-26T00:37:24.801Z,9.80
2019-05-26T00:39:53.719Z,9.80
2019-05-26T00:42:22.747Z,9.80
2019-05-26T00:44:51.759Z,9.70
2019-05-26T00:47:20.633Z,9.70
2019-05-26T00:49:49.668Z,9.70
2019-05-26T00:52:18.931Z,9.70
2019-05-26T00:54:48.065Z,9.70
2019-05-26T00:57:17.270Z,9.80
2019-05-26T00:59:46.414Z,9.80
2019-05-26T01:02:15.643Z,9.80
2019-05-26T01:04:44.769Z,9.80
2019-05-26T01:07:13.666Z,9.80
2019-05-26T01:09:42.528Z,9.80
2019-05-26T01:12:11.514Z,9.80
2019-05-26T01:14:40.570Z,9.80
2019-05-26T01:17:09.747Z,9.80
2019-05-26T01:19:38.778Z,9.80
2019-05-26T01:22:07.974Z,9.80
2019-05-26T01:24:36.877Z,9.80
2019-05-26T01:27:06.091Z,9.80
2019-05-26T01:29:35.155Z,9.80
2019-05-26T01:32:04.442Z,9.70
2019-05-26T01:34:33.562Z,9.70
2019-05-26T01:37:02.986Z,9.70
2019-05-26T01:39:32.263Z,9.70
2019-05-26T01:42:01.314Z,9.70
2019-05-26T01:44:30.327Z,9.70
2019-05-26T01:46:59.307Z,9.70
2019-05-26T01:49:28.278Z,9.70
2019-05-26T01:51:57.255Z,9.70
2019-05-26T01:54:26.209Z,9.70
2019-05-26T01:56:55.170Z,9.70
2019-05-26T01:59:24.271Z,9.70
2019-05-26T02:01:53.154Z,9.80
2019-05-26T02:04:22.138Z,9.80
2019-05-26T02:06:51.241Z,9.80
2019-05-26T02:09:20.473Z,9.80
2019-05-26T02:11:49.506Z,9.80
2019-05-26T02:14:18.539Z,9.80
2019-05-26T02:16:47.496Z,9.80
2019-05-26T02:19:16.361Z,9.70
2019-05-26T02:21:45.475Z,9.80
2019-05-26T02:24:14.474Z,9.80
2019-05-26T02:26:43.368Z,9.80
2019-05-26T02:29:12.256Z,9.80
2019-05-26T02:31:41.189Z,9.70
2019-05-26T02:34:10.142Z,9.70
2019-05-26T02:36:39.139Z,9.70
2019-05-26T02:39:08.838Z,9.70
2019-05-26T02:41:37.960Z,9.70
2019-05-26T02:44:06.978Z,9.60
2019-05-26T02:46:36.160Z,9.60
2019-05-26T02:49:05.543Z,9.60
2019-05-26T02:51:34.577Z,9.60
2019-05-26T02:54:03.674Z,9.60
2019-05-26T02:56:33.494Z,9.70
2019-05-26T02:59:02.610Z,9.70
2019-05-26T03:01:32.661Z,9.70
2019-05-26T03:04:01.966Z,9.70
2019-05-26T03:06:31.414Z,9.70
2019-05-26T03:09:21.003Z,9.60
2019-05-26T03:11:34.790Z,9.60
2019-05-26T03:14:05.004Z,9.60
2019-05-26T03:16:38.019Z,9.60
2019-05-26T03:19:07.129Z,9.60
2019-05-26T03:21:36.202Z,9.60
2019-05-26T03:24:05.544Z,9.70
2019-05-26T03:26:34.655Z,9.70
2019-05-26T03:29:03.681Z,9.70
2019-05-26T03:31:32.696Z,9.70
2019-05-26T03:34:01.693Z,9.80
2019-05-26T03:36:30.732Z,9.80
2019-05-26T03:38:59.720Z,9.90
2019-05-26T03:41:28.842Z,9.90
2019-05-26T03:43:57.871Z,9.90
2019-05-26T03:46:26.867Z,10.00
2019-05-26T03:48:55.945Z,10.00
2019-05-26T03:51:24.951Z,10.00
2019-05-26T03:53:54.074Z,10.00
2019-05-26T03:56:23.027Z,10.00
2019-05-26T03:58:52.028Z,10.10
2019-05-26T04:01:21.011Z,10.20
2019-05-26T04:03:49.966Z,10.10
2019-05-26T04:06:19.010Z,10.10
2019-05-26T04:08:48.065Z,10.20
2019-05-26T04:11:17.113Z,10.20
2019-05-26T04:13:46.168Z,10.30
2019-05-26T04:16:15.115Z,10.30
2019-05-26T04:18:44.149Z,10.30
2019-05-26T04:21:13.143Z,10.30
2019-05-26T04:23:42.111Z,10.40
2019-05-26T04:26:11.049Z,10.50
2019-05-26T04:28:39.940Z,10.50
2019-05-26T04:31:08.998Z,10.60
2019-05-26T04:33:38.065Z,10.60
2019-05-26T04:36:07.088Z,10.70
2019-05-26T04:38:36.071Z,10.80
2019-05-26T04:41:05.194Z,10.80
2019-05-26T04:43:34.190Z,10.80
2019-05-26T04:46:03.157Z,10.80
2019-05-26T04:48:32.150Z,10.90
2019-05-26T04:51:01.031Z,10.90
2019-05-26T04:53:30.026Z,10.90
2019-05-26T04:55:59.116Z,11.00
2019-05-26T04:58:28.092Z,11.10
2019-05-26T05:00:57.231Z,11.10
2019-05-26T05:03:26.280Z,11.20
2019-05-26T05:05:55.202Z,11.20
2019-05-26T05:08:24.169Z,11.20
2019-05-26T05:10:53.058Z,11.30
2019-05-26T05:13:24.906Z,11.30
2019-05-26T05:15:52.742Z,11.40
2019-05-26T05:18:21.715Z,11.40
2019-05-26T05:20:50.643Z,11.50
2019-05-26T05:23:19.681Z,11.60
2019-05-26T05:25:48.677Z,11.70
2019-05-26T05:28:17.726Z,11.80
2019-05-26T05:30:46.764Z,11.90
2019-05-26T05:33:15.816Z,12.00
2019-05-26T05:35:44.784Z,12.10
2019-05-26T05:38:13.664Z,12.20
2019-05-26T05:40:58.341Z,12.30
2019-05-26T05:43:13.156Z,12.40
2019-05-26T05:45:42.091Z,12.50
2019-05-26T05:48:11.061Z,12.60
2019-05-26T05:50:39.980Z,12.80
2019-05-26T05:53:08.862Z,12.90
2019-05-26T05:55:37.883Z,12.90
2019-05-26T05:58:06.897Z,13.00
2019-05-26T06:00:35.768Z,13.00
2019-05-26T06:03:05.920Z,13.00
2019-05-26T06:05:34.940Z,13.10
2019-05-26T06:08:04.015Z,13.20
2019-05-26T06:10:33.130Z,13.20
2019-05-26T06:13:02.098Z,13.30
2019-05-26T06:15:31.276Z,13.40
2019-05-26T06:18:00.212Z,13.60
2019-05-26T06:20:29.204Z,13.80
2019-05-26T06:22:58.094Z,14.00
2019-05-26T06:25:27.228Z,14.10
2019-05-26T06:27:56.266Z,14.20
2019-05-26T06:30:25.947Z,14.20
2019-05-26T06:32:55.253Z,14.30
2019-05-26T06:35:24.383Z,14.40
2019-05-26T06:37:53.471Z,14.60
2019-05-26T06:40:22.618Z,14.70
2019-05-26T06:42:51.598Z,14.80
2019-05-26T06:45:20.894Z,14.90
2019-05-26T06:47:49.956Z,14.90
2019-05-26T06:50:20.123Z,14.90
2019-05-26T06:52:49.097Z,14.80
2019-05-26T06:55:18.148Z,14.70
2019-05-26T06:57:47.036Z,14.70
2019-05-26T07:00:16.264Z,14.80
2019-05-26T07:02:45.316Z,14.80
2019-05-26T07:05:18.216Z,14.70
2019-05-26T07:07:45.286Z,14.70
2019-05-26T07:10:14.634Z,14.70
2019-05-26T07:12:43.608Z,14.80
2019-05-26T07:15:13.630Z,14.80
2019-05-26T07:17:42.697Z,14.80
2019-05-26T07:20:12.483Z,14.90
2019-05-26T07:22:41.508Z,15.00
2019-05-26T07:25:10.887Z,15.00
2019-05-26T07:27:39.878Z,15.00
2019-05-26T07:30:09.413Z,15.10
2019-05-26T07:32:38.544Z,15.10
2019-05-26T07:35:07.702Z,15.10
2019-05-26T07:37:36.850Z,15.10
2019-05-26T07:40:06.195Z,15.00
2019-05-26T07:42:35.502Z,14.90
2019-05-26T07:45:05.564Z,15.00
2019-05-26T07:47:34.526Z,15.00
2019-05-26T07:50:03.606Z,15.00
2019-05-26T07:52:32.542Z,15.10
2019-05-26T07:55:01.575Z,15.20
2019-05-26T07:57:30.791Z,15.30
2019-05-26T07:59:59.694Z,15.50
2019-05-26T08:02:28.660Z,15.60
2019-05-26T08:04:57.594Z,15.80
2019-05-26T08:07:26.498Z,15.90
2019-05-26T08:09:55.400Z,15.90
2019-05-26T08:12:27.116Z,16.00
2019-05-26T08:14:54.969Z,16.00
2019-05-26T08:17:24.071Z,16.00
2019-05-26T08:19:53.138Z,16.20
2019-05-26T08:22:22.030Z,16.20
2019-05-26T08:24:50.931Z,16.30
2019-05-26T08:27:19.970Z,16.40
2019-05-26T08:29:48.954Z,16.40
2019-05-26T08:32:18.031Z,16.40
2019-05-26T08:34:47.027Z,16.60
2019-05-26T08:37:16.031Z,16.70
2019-05-26T08:39:48.349Z,16.70
2019-05-26T08:42:26.953Z,16.80
2019-05-26T08:44:46.658Z,17.00
2019-05-26T08:47:15.799Z,17.20
2019-05-26T08:49:44.786Z,17.20
2019-05-26T08:52:13.778Z,17.20
2019-05-26T08:54:42.706Z,17.30
2019-05-26T08:57:11.704Z,17.30
2019-05-26T08:59:40.588Z,17.20
2019-05-26T09:02:09.580Z,17.20
2019-05-26T09:04:38.503Z,17.20
2019-05-26T09:07:07.547Z,17.20
2019-05-26T09:09:36.456Z,17.30
2019-05-26T09:12:05.776Z,17.30
2019-05-26T09:14:34.757Z,17.20
2019-05-26T09:17:03.828Z,17.20
2019-05-26T09:19:32.773Z,17.20
2019-05-26T09:22:01.752Z,17.20
2019-05-26T09:24:31.003Z,17.00
2019-05-26T09:27:00.031Z,17.00
2019-05-26T09:29:28.980Z,17.00
2019-05-26T09:31:57.999Z,16.80
2019-05-26T09:34:26.983Z,16.80
2019-05-26T09:36:57.163Z,16.70
2019-05-26T09:39:26.199Z,16.70
2019-05-26T09:41:55.169Z,16.80
2019-05-26T09:44:24.059Z,16.90
2019-05-26T09:46:53.452Z,17.10
2019-05-26T09:49:22.430Z,17.20
2019-05-26T09:51:51.327Z,17.30
2019-05-26T09:54:20.365Z,17.50
2019-05-26T09:56:49.425Z,17.90
2019-05-26T09:59:18.477Z,18.30
2019-05-26T10:01:47.503Z,18.70
2019-05-26T10:04:16.566Z,19.10
2019-05-26T10:06:45.483Z,19.40
2019-05-26T10:09:14.963Z,19.50
2019-05-26T10:11:43.946Z,19.60
2019-05-26T10:14:12.820Z,19.90
2019-05-26T10:16:41.803Z,20.20
2019-05-26T10:19:10.774Z,20.40
2019-05-26T10:21:39.763Z,20.80
2019-05-26T10:24:08.898Z,20.90
2019-05-26T10:26:37.902Z,21.00
2019-05-26T10:29:07.718Z,21.20
2019-05-26T10:31:36.599Z,21.30
2019-05-26T10:34:05.820Z,21.50
2019-05-26T10:36:34.787Z,21.30
2019-05-26T10:39:05.327Z,21.00
2019-05-26T10:41:34.217Z,20.90
2019-05-26T10:44:03.268Z,20.80
2019-05-26T10:46:32.262Z,20.90
2019-05-26T10:49:01.147Z,21.00
2019-05-26T10:51:30.142Z,21.20
2019-05-26T10:53:59.059Z,21.30
2019-05-26T10:56:28.172Z,21.50
2019-05-26T10:58:57.371Z,21.50
2019-05-26T11:01:26.397Z,21.50
2019-05-26T11:03:55.411Z,21.30
2019-05-26T11:06:24.392Z,21.10
2019-05-26T11:08:53.550Z,21.10
2019-05-26T11:11:22.555Z,21.10
2019-05-26T11:14:02.283Z,21.30
2019-05-26T11:16:22.223Z,21.30
2019-05-26T11:18:51.267Z,21.30
2019-05-26T11:21:20.415Z,21.50
2019-05-26T11:23:49.389Z,21.60
2019-05-26T11:26:18.450Z,21.60
2019-05-26T11:28:47.347Z,21.60
2019-05-26T11:31:16.430Z,21.60
2019-05-26T11:33:45.611Z,21.60
2019-05-26T11:36:14.774Z,21.60
2019-05-26T11:38:43.886Z,21.70
2019-05-26T11:41:13.174Z,21.90
2019-05-26T11:43:42.227Z,21.90
2019-05-26T11:46:11.307Z,21.90
2019-05-26T11:48:40.338Z,22.10
2019-05-26T11:51:09.447Z,22.10
2019-05-26T11:53:38.533Z,22.10
2019-05-26T11:56:07.603Z,22.00
2019-05-26T11:58:36.616Z,22.10
2019-05-26T12:01:06.095Z,22.20
2019-05-26T12:03:35.214Z,22.10
2019-05-26T12:06:04.317Z,22.00
2019-05-26T12:08:33.235Z,22.10
2019-05-26T12:11:02.227Z,22.00
2019-05-26T12:13:31.270Z,21.80
2019-05-26T12:16:00.365Z,21.70
2019-05-26T12:18:29.363Z,21.60
2019-05-26T12:20:58.355Z,21.60
2019-05-26T12:23:27.430Z,21.60
2019-05-26T12:25:56.409Z,21.70
2019-05-26T12:28:25.487Z,21.90
2019-05-26T12:30:54.480Z,22.00
2019-05-26T12:33:23.471Z,22.20
2019-05-26T12:35:52.411Z,22.10
2019-05-26T12:38:21.510Z,22.20
2019-05-26T12:40:50.599Z,22.10
2019-05-26T12:43:19.719Z,22.10
2019-05-26T12:45:48.794Z,22.20
2019-05-26T12:48:17.897Z,22.00
2019-05-26T12:50:47.041Z,21.90
2019-05-26T12:53:16.195Z,22.00
2019-05-26T12:55:45.063Z,22.00
2019-05-26T12:58:14.103Z,22.00
2019-05-26T13:00:49.475Z,22.20
2019-05-26T13:03:13.765Z,22.40
2019-05-26T13:05:43.599Z,22.30
2019-05-26T13:08:12.606Z,22.20
2019-05-26T13:10:41.673Z,22.30
2019-05-26T13:13:10.809Z,22.10
2019-05-26T13:15:39.839Z,22.10
2019-05-26T13:18:09.286Z,22.00
2019-05-26T13:20:38.339Z,22.00
2019-05-26T13:23:07.328Z,21.80
2019-05-26T13:25:36.312Z,21.70
2019-05-26T13:28:05.717Z,21.60
2019-05-26T13:30:35.006Z,21.60
2019-05-26T13:33:04.187Z,21.60
2019-05-26T13:35:33.543Z,21.50
2019-05-26T13:38:02.603Z,21.40
2019-05-26T13:40:31.631Z,21.20
2019-05-26T13:43:00.732Z,21.10
2019-05-26T13:45:29.826Z,21.10
2019-05-26T13:47:58.834Z,21.00
2019-05-26T13:50:28.050Z,20.90
2019-05-26T13:52:57.097Z,20.90
2019-05-26T13:55:26.147Z,20.80
2019-05-26T13:57:55.210Z,20.80
2019-05-26T14:00:24.563Z,20.70
2019-05-26T14:02:53.770Z,20.70
2019-05-26T14:05:22.793Z,20.70
2019-05-26T14:07:51.790Z,20.80
2019-05-26T14:10:31.434Z,20.90
2019-05-26T14:13:00.505Z,21.00
2019-05-26T14:15:37.945Z,21.10
2019-05-26T14:18:01.058Z,21.20
2019-05-26T14:20:35.390Z,21.40
2019-05-26T14:23:04.915Z,21.50
2019-05-26T14:25:33.936Z,21.60
2019-05-26T14:28:03.198Z,21.60
2019-05-26T14:30:32.444Z,21.50
2019-05-26T14:33:01.550Z,21.50
2019-05-26T14:35:30.667Z,21.50
2019-05-26T14:37:59.829Z,21.50
2019-05-26T14:40:28.939Z,21.60
2019-05-26T14:42:58.218Z,21.60
2019-05-26T14:45:27.415Z,21.60
2019-05-26T14:47:56.982Z,21.60
2019-05-26T14:50:26.978Z,21.60
2019-05-26T14:52:55.946Z,21.50
2019-05-26T14:55:25.066Z,21.50
2019-05-26T14:57:54.161Z,21.50
2019-05-26T15:00:23.655Z,21.50
2019-05-26T15:02:52.679Z,21.50
2019-05-26T15:05:21.773Z,21.30
2019-05-26T15:07:50.734Z,21.30
2019-05-26T15:10:22.633Z,21.30
2019-05-26T15:12:50.597Z,21.20
2019-05-26T15:15:19.911Z,21.20
2019-05-26T15:17:49.081Z,21.10
2019-05-26T15:20:18.370Z,21.10
2019-05-26T15:22:47.415Z,21.00
2019-05-26T15:25:16.493Z,21.00
2019-05-26T15:27:46.722Z,20.90
2019-05-26T15:30:17.486Z,20.90
2019-05-26T15:32:46.537Z,20.80
2019-05-26T15:35:16.014Z,20.80
2019-05-26T15:37:44.985Z,20.70
2019-05-26T15:40:14.617Z,20.70
2019-05-26T15:42:43.650Z,20.70
2019-05-26T15:45:13.550Z,20.70
2019-05-26T15:47:42.535Z,20.60
2019-05-26T15:50:13.727Z,20.60
2019-05-26T15:52:42.991Z,20.60
2019-05-26T15:55:12.240Z,20.60
2019-05-26T15:57:41.331Z,20.60
2019-05-26T16:00:12.354Z,20.60
2019-05-26T16:02:41.416Z,20.60
2019-05-26T16:05:11.437Z,20.60
2019-05-26T16:07:40.459Z,20.60
2019-05-26T16:10:09.862Z,20.60
2019-05-26T16:12:38.969Z,20.60
2019-05-26T16:15:08.929Z,20.50
2019-05-26T16:17:38.916Z,20.50
2019-05-26T16:20:08.765Z,20.50
2019-05-26T16:22:37.875Z,20.50
2019-05-26T16:25:07.497Z,20.40
2019-05-26T16:27:36.590Z,20.30
2019-05-26T16:30:06.188Z,20.30
2019-05-26T16:32:35.315Z,20.30
2019-05-26T16:35:04.997Z,20.20
2019-05-26T16:37:34.070Z,20.20
2019-05-26T16:40:03.247Z,20.20
2019-05-26T16:42:32.290Z,20.10
2019-05-26T16:45:01.378Z,20.10
2019-05-26T16:47:30.265Z,20.00
2019-05-26T16:49:59.439Z,20.00
2019-05-26T16:52:28.470Z,19.90
2019-05-26T16:54:57.463Z,19.70
2019-05-26T16:57:26.529Z,19.50
2019-05-26T16:59:55.553Z,19.50
2019-05-26T17:02:24.619Z,19.50
2019-05-26T17:04:53.746Z,19.50
2019-05-26T17:07:22.967Z,19.30
2019-05-26T17:09:52.012Z,19.30
2019-05-26T17:12:21.059Z,19.30
2019-05-26T17:14:50.091Z,19.30
2019-05-26T17:17:19.137Z,19.30
2019-05-26T17:19:48.251Z,19.20
2019-05-26T17:22:17.300Z,19.00
2019-05-26T17:24:46.325Z,18.90
2019-05-26T17:27:15.502Z,18.80
2019-05-26T17:29:44.478Z,18.80
2019-05-26T17:32:13.579Z,18.70
2019-05-26T17:34:42.518Z,18.50
2019-05-26T17:37:11.644Z,18.40
2019-05-26T17:39:40.619Z,18.40
2019-05-26T17:42:09.658Z,18.40
2019-05-26T17:44:38.772Z,18.30
2019-05-26T17:47:07.991Z,18.30
2019-05-26T17:49:36.955Z,18.30
2019-05-26T17:52:05.993Z,18.40
2019-05-26T17:54:35.010Z,18.30
2019-05-26T17:57:04.051Z,18.40
2019-05-26T17:59:33.648Z,18.30
2019-05-26T18:02:02.810Z,18.30
2019-05-26T18:04:31.741Z,18.20
2019-05-26T18:07:00.794Z,18.20
2019-05-26T18:09:43.224Z,18.20
2019-05-26T18:12:00.743Z,18.20
2019-05-26T18:14:29.700Z,18.10
2019-05-26T18:16:58.647Z,18.10
2019-05-26T18:19:29.840Z,18.00
2019-05-26T18:21:58.377Z,17.90
2019-05-26T18:24:27.425Z,17.70
2019-05-26T18:26:56.431Z,17.50
2019-05-26T18:29:25.403Z,17.30
2019-05-26T18:31:54.402Z,17.20
2019-05-26T18:34:23.576Z,17.20
2019-05-26T18:36:52.506Z,17.20
2019-05-26T18:39:21.475Z,17.10
2019-05-26T18:41:50.615Z,17.20
2019-05-26T18:44:19.671Z,17.10
2019-05-26T18:46:48.743Z,17.20
2019-05-26T18:49:17.792Z,17.10
2019-05-26T18:51:46.969Z,17.10
2019-05-26T18:54:16.197Z,17.10
2019-05-26T18:56:45.408Z,17.10
2019-05-26T18:59:14.482Z,17.10
2019-05-26T19:01:43.441Z,17.20
2019-05-26T19:04:12.496Z,17.20
2019-05-26T19:06:41.535Z,17.30
2019-05-26T19:09:10.611Z,17.30
2019-05-26T19:11:39.654Z,17.20
2019-05-26T19:14:08.859Z,17.30
2019-05-26T19:16:37.809Z,17.30
2019-05-26T19:19:06.909Z,17.30
2019-05-26T19:21:36.031Z,17.30
2019-05-26T19:24:05.156Z,17.30
2019-05-26T19:26:34.246Z,17.30
2019-05-26T19:29:03.219Z,17.30
2019-05-26T19:31:32.279Z,17.30
2019-05-26T19:34:01.263Z,17.30
2019-05-26T19:36:30.341Z,17.30
2019-05-26T19:38:59.348Z,17.30
2019-05-26T19:41:28.466Z,17.30
2019-05-26T19:43:57.499Z,17.20
2019-05-26T19:46:26.505Z,17.30
2019-05-26T19:48:55.671Z,17.30
2019-05-26T19:51:24.639Z,17.30
2019-05-26T19:53:53.639Z,17.30
2019-05-26T19:56:22.708Z,17.30
2019-05-26T19:58:51.726Z,17.30
2019-05-26T20:01:20.770Z,17.30
2019-05-26T20:03:49.791Z,17.30
2019-05-26T20:06:18.876Z,17.40
2019-05-26T20:08:48.154Z,17.40
2019-05-26T20:11:17.203Z,17.40
2019-05-26T20:13:46.288Z,17.40
2019-05-26T20:16:15.476Z,17.40
2019-05-26T20:18:44.443Z,17.40
2019-05-26T20:21:13.417Z,17.40
2019-05-26T20:23:42.444Z,17.40
2019-05-26T20:26:11.412Z,17.40
2019-05-26T20:28:40.371Z,17.40
2019-05-26T20:31:09.255Z,17.40
2019-05-26T20:33:38.151Z,17.40
2019-05-26T20:36:07.143Z,17.40
2019-05-26T20:38:36.217Z,17.40
2019-05-26T20:41:05.186Z,17.50
2019-05-26T20:43:34.150Z,17.50
2019-05-26T20:46:03.196Z,17.50
2019-05-26T20:48:32.397Z,17.50
2019-05-26T20:51:01.364Z,17.50
2019-05-26T20:53:30.346Z,17.60
2019-05-26T20:55:59.371Z,17.60
2019-05-26T20:58:28.381Z,17.60
2019-05-26T21:00:57.459Z,17.60
2019-05-26T21:03:26.495Z,17.60
2019-05-26T21:05:55.567Z,17.50
2019-05-26T21:08:24.596Z,17.60
2019-05-26T21:10:53.690Z,17.60
2019-05-26T21:13:23.374Z,17.50
2019-05-26T21:15:52.315Z,17.50
2019-05-26T21:18:21.315Z,17.50
2019-05-26T21:20:50.355Z,17.50
2019-05-26T21:23:22.495Z,17.50
2019-05-26T21:25:50.099Z,17.40
2019-05-26T21:28:19.071Z,17.40
2019-05-26T21:30:48.217Z,17.30
2019-05-26T21:33:17.291Z,17.30
2019-05-26T21:35:46.236Z,17.20
2019-05-26T21:38:15.280Z,17.20
2019-05-26T21:40:44.274Z,17.10
2019-05-26T21:43:13.406Z,17.00
2019-05-26T21:45:42.431Z,17.00
2019-05-26T21:48:11.373Z,17.00
2019-05-26T21:50:40.419Z,16.80
2019-05-26T21:53:09.519Z,16.70
2019-05-26T21:55:39.122Z,16.70
2019-05-26T21:58:08.079Z,16.70
2019-05-26T22:00:41.429Z,16.70
2019-05-26T22:03:10.539Z,16.70
2019-05-26T22:05:39.470Z,16.60
2019-05-26T22:08:08.559Z,16.60
2019-05-26T22:10:37.600Z,16.60
2019-05-26T22:13:06.944Z,16.50
2019-05-26T22:15:36.036Z,16.40
2019-05-26T22:18:05.250Z,16.40
2019-05-26T22:20:34.312Z,16.50
2019-05-26T22:23:03.399Z,16.50
2019-05-26T22:25:32.294Z,16.50
2019-05-26T22:28:01.285Z,16.50
2019-05-26T22:30:30.213Z,16.50
2019-05-26T22:32:59.308Z,16.40
2019-05-26T22:35:28.194Z,16.50
2019-05-26T22:37:57.233Z,16.40
2019-05-26T22:40:26.419Z,16.40
2019-05-26T22:42:55.426Z,16.40
2019-05-26T22:45:24.531Z,16.50
2019-05-26T22:47:53.628Z,16.50
2019-05-26T22:50:22.654Z,16.40
2019-05-26T22:52:51.579Z,16.40
2019-05-26T22:55:20.658Z,16.30
2019-05-26T22:57:49.639Z,16.20
2019-05-26T23:00:19.259Z,16.20
2019-05-26T23:02:48.256Z,16.20
2019-05-26T23:05:17.381Z,16.20
2019-05-26T23:07:46.429Z,16.10
2019-05-26T23:10:15.774Z,16.10
2019-05-26T23:12:47.911Z,16.10
2019-05-26T23:15:18.144Z,16.10
2019-05-26T23:17:47.068Z,16.00
2019-05-26T23:20:16.219Z,16.00
2019-05-26T23:22:45.210Z,16.00
2019-05-26T23:25:14.676Z,16.00
2019-05-26T23:27:43.572Z,16.00
2019-05-26T23:30:12.934Z,16.00
2019-05-26T23:32:45.005Z,16.00
2019-05-26T23:35:16.114Z,15.90
2019-05-26T23:37:45.092Z,15.80
2019-05-26T23:40:14.125Z,15.80
2019-05-26T23:42:43.097Z,15.80
2019-05-26T23:45:12.550Z,15.90
2019-05-26T23:47:41.702Z,15.90
2019-05-26T23:50:10.912Z,15.90
2019-05-26T23:52:39.989Z,15.80
2019-05-26T23:55:09.427Z,15.80
2019-05-26T23:57:38.548Z,15.70
